sensor_id;sensor_type;location;lat;lon;timestamp;P1;durP1;ratioP1;P2;durP2;ratioP2
50126;SDS011;36024;47.974;16.398;2022-10-16T00:01:07;29.10;;;26.30;;
50126;SDS011;36024;47.974;16.398;2022-10-16T00:03:39;28.27;;;25.47;;
50126;SDS011;36024;47.974;16.398;2022-10-16T00:06:07;27.90;;;25.10;;
50126;SDS011;36024;47.974;16.398;2022-10-16T00:08:34;28.47;;;25.47;;
50126;SDS011;36024;47.974;16.398;2022-10-16T00:11:02;29.70;;;26.60;;
50126;SDS011;36024;47.974;16.398;2022-10-16T00:13:32;29.73;;;26.73;;
50126;SDS011;36024;47.974;16.398;2022-10-16T00:16:00;51.30;;;32.47;;
50126;SDS011;36024;47.974;16.398;2022-10-16T00:18:28;45.27;;;34.47;;
50126;SDS011;36024;47.974;16.398;2022-10-16T00:20:54;36.97;;;32.07;;
50126;SDS011;36024;47.974;16.398;2022-10-16T00:23:26;34.20;;;30.57;;
50126;SDS011;36024;47.974;16.398;2022-10-16T00:26:00;44.90;;;32.40;;
50126;SDS011;36024;47.974;16.398;2022-10-16T00:28:29;43.17;;;33.63;;
50126;SDS011;36024;47.974;16.398;2022-10-16T00:30:56;64.40;;;34.27;;
50126;SDS011;36024;47.974;16.398;2022-10-16T00:33:23;43.17;;;34.03;;
50126;SDS011;36024;47.974;16.398;2022-10-16T00:35:50;92.63;;;35.43;;
50126;SDS011;36024;47.974;16.398;2022-10-16T00:38:17;62.07;;;34.60;;
50126;SDS011;36024;47.974;16.398;2022-10-16T00:40:43;46.63;;;35.23;;
50126;SDS011;36024;47.974;16.398;2022-10-16T00:46:08;46.17;;;34.43;;
50126;SDS011;36024;47.974;16.398;2022-10-16T00:48:40;37.67;;;32.97;;
50126;SDS011;36024;47.974;16.398;2022-10-16T00:51:07;38.23;;;33.47;;
50126;SDS011;36024;47.974;16.398;2022-10-16T00:53:34;37.00;;;32.80;;
50126;SDS011;36024;47.974;16.398;2022-10-16T00:56:01;33.97;;;30.30;;
50126;SDS011;36024;47.974;16.398;2022-10-16T00:58:28;33.30;;;29.77;;
50126;SDS011;36024;47.974;16.398;2022-10-16T01:00:55;31.77;;;28.57;;
50126;SDS011;36024;47.974;16.398;2022-10-16T01:03:25;29.87;;;26.87;;
50126;SDS011;36024;47.974;16.398;2022-10-16T01:14:19;28.57;;;25.87;;
50126;SDS011;36024;47.974;16.398;2022-10-16T01:16:58;28.03;;;25.50;;
50126;SDS011;36024;47.974;16.398;2022-10-16T01:22:37;28.00;;;25.27;;
50126;SDS011;36024;47.974;16.398;2022-10-16T01:25:09;29.27;;;26.37;;
50126;SDS011;36024;47.974;16.398;2022-10-16T01:27:40;30.93;;;27.70;;
50126;SDS011;36024;47.974;16.398;2022-10-16T01:33:47;30.50;;;27.50;;
50126;SDS011;36024;47.974;16.398;2022-10-16T01:36:12;31.47;;;28.17;;
50126;SDS011;36024;47.974;16.398;2022-10-16T01:38:40;29.40;;;26.30;;
50126;SDS011;36024;47.974;16.398;2022-10-16T01:41:11;32.37;;;28.97;;
50126;SDS011;36024;47.974;16.398;2022-10-16T01:43:46;35.67;;;31.77;;
50126;SDS011;36024;47.974;16.398;2022-10-16T01:46:16;34.77;;;31.00;;
50126;SDS011;36024;47.974;16.398;2022-10-16T01:48:43;35.87;;;31.90;;
50126;SDS011;36024;47.974;16.398;2022-10-16T01:51:10;38.17;;;32.80;;
50126;SDS011;36024;47.974;16.398;2022-10-16T01:53:39;43.90;;;35.00;;
50126;SDS011;36024;47.974;16.398;2022-10-16T01:56:08;42.93;;;35.73;;
50126;SDS011;36024;47.974;16.398;2022-10-16T01:58:37;43.37;;;35.00;;
50126;SDS011;36024;47.974;16.398;2022-10-16T02:01:07;36.90;;;32.90;;
50126;SDS011;36024;47.974;16.398;2022-10-16T02:03:35;35.60;;;31.93;;
50126;SDS011;36024;47.974;16.398;2022-10-16T02:06:02;35.37;;;31.57;;
50126;SDS011;36024;47.974;16.398;2022-10-16T02:08:29;35.57;;;31.93;;
50126;SDS011;36024;47.974;16.398;2022-10-16T02:10:57;34.60;;;31.10;;
50126;SDS011;36024;47.974;16.398;2022-10-16T02:13:29;34.27;;;30.97;;
50126;SDS011;36024;47.974;16.398;2022-10-16T02:15:58;34.30;;;30.90;;
50126;SDS011;36024;47.974;16.398;2022-10-16T02:18:26;33.20;;;29.67;;
50126;SDS011;36024;47.974;16.398;2022-10-16T02:20:57;31.40;;;28.33;;
50126;SDS011;36024;47.974;16.398;2022-10-16T02:26:08;32.20;;;29.10;;
50126;SDS011;36024;47.974;16.398;2022-10-16T02:28:42;32.40;;;29.27;;
50126;SDS011;36024;47.974;16.398;2022-10-16T02:31:12;32.47;;;29.27;;
50126;SDS011;36024;47.974;16.398;2022-10-16T02:33:43;33.57;;;30.27;;
50126;SDS011;36024;47.974;16.398;2022-10-16T02:36:10;34.37;;;31.00;;
50126;SDS011;36024;47.974;16.398;2022-10-16T02:38:37;32.67;;;29.57;;
50126;SDS011;36024;47.974;16.398;2022-10-16T02:41:04;31.93;;;28.73;;
50126;SDS011;36024;47.974;16.398;2022-10-16T02:43:31;34.37;;;30.97;;
50126;SDS011;36024;47.974;16.398;2022-10-16T02:45:58;34.23;;;30.93;;
50126;SDS011;36024;47.974;16.398;2022-10-16T02:48:25;33.77;;;30.50;;
50126;SDS011;36024;47.974;16.398;2022-10-16T02:50:51;33.87;;;30.43;;
50126;SDS011;36024;47.974;16.398;2022-10-16T02:53:18;34.17;;;30.80;;
50126;SDS011;36024;47.974;16.398;2022-10-16T02:55:44;33.07;;;29.87;;
50126;SDS011;36024;47.974;16.398;2022-10-16T02:58:11;34.70;;;31.40;;
50126;SDS011;36024;47.974;16.398;2022-10-16T03:00:38;34.70;;;31.13;;
50126;SDS011;36024;47.974;16.398;2022-10-16T03:03:05;32.40;;;29.30;;
50126;SDS011;36024;47.974;16.398;2022-10-16T03:05:31;34.13;;;30.83;;
50126;SDS011;36024;47.974;16.398;2022-10-16T03:07:58;33.63;;;30.43;;
50126;SDS011;36024;47.974;16.398;2022-10-16T03:10:27;34.80;;;31.30;;
50126;SDS011;36024;47.974;16.398;2022-10-16T03:12:53;34.70;;;31.40;;
50126;SDS011;36024;47.974;16.398;2022-10-16T03:15:20;34.27;;;30.87;;
50126;SDS011;36024;47.974;16.398;2022-10-16T03:30:58;32.00;;;28.70;;
50126;SDS011;36024;47.974;16.398;2022-10-16T03:33:25;34.13;;;30.43;;
50126;SDS011;36024;47.974;16.398;2022-10-16T03:35:52;33.90;;;30.60;;
50126;SDS011;36024;47.974;16.398;2022-10-16T03:38:19;33.30;;;29.90;;
50126;SDS011;36024;47.974;16.398;2022-10-16T03:40:46;32.97;;;29.57;;
50126;SDS011;36024;47.974;16.398;2022-10-16T03:43:13;34.27;;;30.53;;
50126;SDS011;36024;47.974;16.398;2022-10-16T03:45:44;34.53;;;30.70;;
50126;SDS011;36024;47.974;16.398;2022-10-16T03:48:11;33.97;;;30.53;;
50126;SDS011;36024;47.974;16.398;2022-10-16T03:50:38;35.87;;;30.17;;
50126;SDS011;36024;47.974;16.398;2022-10-16T03:53:04;33.63;;;30.23;;
50126;SDS011;36024;47.974;16.398;2022-10-16T03:55:31;35.13;;;30.57;;
50126;SDS011;36024;47.974;16.398;2022-10-16T03:57:58;34.20;;;30.17;;
50126;SDS011;36024;47.974;16.398;2022-10-16T04:00:24;36.17;;;31.37;;
50126;SDS011;36024;47.974;16.398;2022-10-16T04:02:51;68.73;;;32.83;;
50126;SDS011;36024;47.974;16.398;2022-10-16T04:05:17;45.63;;;31.07;;
50126;SDS011;36024;47.974;16.398;2022-10-16T04:07:44;46.07;;;29.97;;
50126;SDS011;36024;47.974;16.398;2022-10-16T04:10:10;48.17;;;32.63;;
50126;SDS011;36024;47.974;16.398;2022-10-16T04:12:37;47.63;;;31.00;;
50126;SDS011;36024;47.974;16.398;2022-10-16T04:15:04;38.00;;;30.87;;
50126;SDS011;36024;47.974;16.398;2022-10-16T04:17:30;36.80;;;30.07;;
50126;SDS011;36024;47.974;16.398;2022-10-16T04:19:57;36.50;;;29.53;;
50126;SDS011;36024;47.974;16.398;2022-10-16T04:22:23;38.90;;;28.73;;
50126;SDS011;36024;47.974;16.398;2022-10-16T04:24:50;37.67;;;28.60;;
50126;SDS011;36024;47.974;16.398;2022-10-16T04:27:17;39.23;;;28.50;;
50126;SDS011;36024;47.974;16.398;2022-10-16T04:29:43;32.30;;;28.50;;
50126;SDS011;36024;47.974;16.398;2022-10-16T04:32:10;37.00;;;29.33;;
50126;SDS011;36024;47.974;16.398;2022-10-16T04:34:38;36.43;;;32.73;;
50126;SDS011;36024;47.974;16.398;2022-10-16T04:37:05;48.17;;;32.63;;
50126;SDS011;36024;47.974;16.398;2022-10-16T04:39:32;46.13;;;33.23;;
50126;SDS011;36024;47.974;16.398;2022-10-16T04:41:58;68.83;;;35.03;;
50126;SDS011;36024;47.974;16.398;2022-10-16T04:44:25;47.47;;;34.33;;
50126;SDS011;36024;47.974;16.398;2022-10-16T04:46:51;48.30;;;34.03;;
50126;SDS011;36024;47.974;16.398;2022-10-16T04:49:18;47.30;;;34.60;;
50126;SDS011;36024;47.974;16.398;2022-10-16T04:51:44;52.27;;;35.23;;
50126;SDS011;36024;47.974;16.398;2022-10-16T04:54:11;41.90;;;32.00;;
50126;SDS011;36024;47.974;16.398;2022-10-16T04:56:37;40.20;;;32.00;;
50126;SDS011;36024;47.974;16.398;2022-10-16T04:59:15;40.80;;;32.53;;
50126;SDS011;36024;47.974;16.398;2022-10-16T05:01:41;42.53;;;30.73;;
50126;SDS011;36024;47.974;16.398;2022-10-16T05:04:08;35.70;;;32.10;;
50126;SDS011;36024;47.974;16.398;2022-10-16T05:06:35;43.90;;;30.70;;
50126;SDS011;36024;47.974;16.398;2022-10-16T05:09:02;35.10;;;31.17;;
50126;SDS011;36024;47.974;16.398;2022-10-16T05:11:29;36.60;;;30.63;;
50126;SDS011;36024;47.974;16.398;2022-10-16T05:13:56;39.90;;;30.17;;
50126;SDS011;36024;47.974;16.398;2022-10-16T05:16:22;38.57;;;30.60;;
50126;SDS011;36024;47.974;16.398;2022-10-16T05:18:50;36.00;;;30.07;;
50126;SDS011;36024;47.974;16.398;2022-10-16T05:21:21;34.40;;;30.83;;
50126;SDS011;36024;47.974;16.398;2022-10-16T05:23:48;40.67;;;31.13;;
50126;SDS011;36024;47.974;16.398;2022-10-16T05:26:14;43.23;;;30.97;;
50126;SDS011;36024;47.974;16.398;2022-10-16T05:28:41;42.17;;;31.97;;
50126;SDS011;36024;47.974;16.398;2022-10-16T05:31:08;44.17;;;31.57;;
50126;SDS011;36024;47.974;16.398;2022-10-16T05:33:35;43.80;;;31.93;;
50126;SDS011;36024;47.974;16.398;2022-10-16T05:36:05;44.43;;;31.57;;
50126;SDS011;36024;47.974;16.398;2022-10-16T05:38:34;61.53;;;33.80;;
50126;SDS011;36024;47.974;16.398;2022-10-16T05:41:01;43.27;;;32.33;;
50126;SDS011;36024;47.974;16.398;2022-10-16T05:43:28;56.83;;;33.47;;
50126;SDS011;36024;47.974;16.398;2022-10-16T05:45:56;61.03;;;32.97;;
50126;SDS011;36024;47.974;16.398;2022-10-16T05:48:24;53.07;;;33.53;;
50126;SDS011;36024;47.974;16.398;2022-10-16T05:51:04;62.30;;;30.87;;
50126;SDS011;36024;47.974;16.398;2022-10-16T05:53:35;64.17;;;29.93;;
50126;SDS011;36024;47.974;16.398;2022-10-16T05:56:03;54.60;;;31.73;;
50126;SDS011;36024;47.974;16.398;2022-10-16T05:58:31;49.03;;;33.40;;
50126;SDS011;36024;47.974;16.398;2022-10-16T06:01:03;70.13;;;32.43;;
50126;SDS011;36024;47.974;16.398;2022-10-16T06:03:31;71.50;;;31.70;;
50126;SDS011;36024;47.974;16.398;2022-10-16T06:05:57;60.10;;;32.77;;
50126;SDS011;36024;47.974;16.398;2022-10-16T06:08:24;88.20;;;33.37;;
50126;SDS011;36024;47.974;16.398;2022-10-16T06:11:01;110.53;;;34.43;;
50126;SDS011;36024;47.974;16.398;2022-10-16T06:13:31;50.53;;;34.20;;
50126;SDS011;36024;47.974;16.398;2022-10-16T06:15:58;40.53;;;35.63;;
50126;SDS011;36024;47.974;16.398;2022-10-16T06:18:26;77.90;;;35.90;;
50126;SDS011;36024;47.974;16.398;2022-10-16T06:20:53;113.70;;;40.00;;
50126;SDS011;36024;47.974;16.398;2022-10-16T06:23:20;60.83;;;38.33;;
50126;SDS011;36024;47.974;16.398;2022-10-16T06:25:47;45.23;;;40.53;;
50126;SDS011;36024;47.974;16.398;2022-10-16T06:28:14;42.93;;;38.60;;
50126;SDS011;36024;47.974;16.398;2022-10-16T06:30:41;45.83;;;41.03;;
50126;SDS011;36024;47.974;16.398;2022-10-16T06:33:10;176.50;;;40.40;;
50126;SDS011;36024;47.974;16.398;2022-10-16T06:35:37;112.07;;;35.53;;
50126;SDS011;36024;47.974;16.398;2022-10-16T06:38:03;137.93;;;35.37;;
50126;SDS011;36024;47.974;16.398;2022-10-16T06:40:30;106.03;;;35.63;;
50126;SDS011;36024;47.974;16.398;2022-10-16T06:42:57;39.33;;;35.13;;
50126;SDS011;36024;47.974;16.398;2022-10-16T06:45:24;99.63;;;33.53;;
50126;SDS011;36024;47.974;16.398;2022-10-16T06:47:51;68.53;;;32.27;;
50126;SDS011;36024;47.974;16.398;2022-10-16T06:50:17;60.10;;;31.47;;
50126;SDS011;36024;47.974;16.398;2022-10-16T06:52:44;50.20;;;30.90;;
50126;SDS011;36024;47.974;16.398;2022-10-16T06:55:10;68.83;;;31.27;;
50126;SDS011;36024;47.974;16.398;2022-10-16T06:57:37;34.90;;;31.20;;
50126;SDS011;36024;47.974;16.398;2022-10-16T07:00:03;55.00;;;32.50;;
50126;SDS011;36024;47.974;16.398;2022-10-16T07:02:31;68.73;;;33.57;;
50126;SDS011;36024;47.974;16.398;2022-10-16T07:04:57;73.60;;;31.90;;
50126;SDS011;36024;47.974;16.398;2022-10-16T07:07:24;91.47;;;33.20;;
50126;SDS011;36024;47.974;16.398;2022-10-16T07:09:52;56.73;;;32.50;;
50126;SDS011;36024;47.974;16.398;2022-10-16T07:12:19;37.20;;;33.17;;
50126;SDS011;36024;47.974;16.398;2022-10-16T07:14:46;36.97;;;33.27;;
50126;SDS011;36024;47.974;16.398;2022-10-16T07:17:12;37.67;;;32.50;;
50126;SDS011;36024;47.974;16.398;2022-10-16T07:19:39;36.03;;;32.40;;
50126;SDS011;36024;47.974;16.398;2022-10-16T07:22:05;59.63;;;31.87;;
50126;SDS011;36024;47.974;16.398;2022-10-16T07:24:32;47.73;;;31.27;;
50126;SDS011;36024;47.974;16.398;2022-10-16T07:26:59;74.50;;;31.43;;
50126;SDS011;36024;47.974;16.398;2022-10-16T07:29:25;59.47;;;30.70;;
50126;SDS011;36024;47.974;16.398;2022-10-16T07:31:52;48.60;;;31.47;;
50126;SDS011;36024;47.974;16.398;2022-10-16T07:34:19;62.67;;;30.90;;
50126;SDS011;36024;47.974;16.398;2022-10-16T07:36:48;52.23;;;30.97;;
50126;SDS011;36024;47.974;16.398;2022-10-16T07:39:16;33.90;;;30.57;;
50126;SDS011;36024;47.974;16.398;2022-10-16T07:41:43;49.60;;;30.43;;
50126;SDS011;36024;47.974;16.398;2022-10-16T07:44:09;34.47;;;30.73;;
50126;SDS011;36024;47.974;16.398;2022-10-16T07:46:36;32.73;;;29.53;;
50126;SDS011;36024;47.974;16.398;2022-10-16T07:49:03;32.60;;;29.40;;
50126;SDS011;36024;47.974;16.398;2022-10-16T07:51:30;33.10;;;29.93;;
50126;SDS011;36024;47.974;16.398;2022-10-16T07:53:56;33.10;;;29.90;;
50126;SDS011;36024;47.974;16.398;2022-10-16T07:56:23;36.30;;;29.70;;
50126;SDS011;36024;47.974;16.398;2022-10-16T07:58:50;32.30;;;28.67;;
50126;SDS011;36024;47.974;16.398;2022-10-16T08:01:17;32.13;;;28.83;;
50126;SDS011;36024;47.974;16.398;2022-10-16T08:03:45;31.80;;;28.07;;
50126;SDS011;36024;47.974;16.398;2022-10-16T08:06:14;30.17;;;27.17;;
50126;SDS011;36024;47.974;16.398;2022-10-16T08:08:41;30.30;;;27.40;;
50126;SDS011;36024;47.974;16.398;2022-10-16T08:11:07;29.47;;;26.67;;
50126;SDS011;36024;47.974;16.398;2022-10-16T08:13:34;29.20;;;26.50;;
50126;SDS011;36024;47.974;16.398;2022-10-16T08:16:01;29.73;;;26.80;;
50126;SDS011;36024;47.974;16.398;2022-10-16T08:18:28;30.57;;;27.67;;
50126;SDS011;36024;47.974;16.398;2022-10-16T08:20:55;29.30;;;26.40;;
50126;SDS011;36024;47.974;16.398;2022-10-16T08:23:24;28.40;;;25.80;;
50126;SDS011;36024;47.974;16.398;2022-10-16T08:25:52;36.53;;;27.63;;
50126;SDS011;36024;47.974;16.398;2022-10-16T08:28:20;28.17;;;25.47;;
50126;SDS011;36024;47.974;16.398;2022-10-16T08:30:47;30.13;;;26.90;;
50126;SDS011;36024;47.974;16.398;2022-10-16T08:33:13;30.63;;;27.63;;
50126;SDS011;36024;47.974;16.398;2022-10-16T08:35:40;28.87;;;26.10;;
50126;SDS011;36024;47.974;16.398;2022-10-16T08:38:07;30.67;;;27.77;;
50126;SDS011;36024;47.974;16.398;2022-10-16T08:40:34;34.10;;;30.80;;
50126;SDS011;36024;47.974;16.398;2022-10-16T08:48:11;33.63;;;30.33;;
50126;SDS011;36024;47.974;16.398;2022-10-16T08:50:43;32.60;;;29.20;;
50126;SDS011;36024;47.974;16.398;2022-10-16T08:53:14;31.00;;;28.00;;
50126;SDS011;36024;47.974;16.398;2022-10-16T08:55:50;30.90;;;27.90;;
50126;SDS011;36024;47.974;16.398;2022-10-16T08:58:18;31.10;;;27.90;;
50126;SDS011;36024;47.974;16.398;2022-10-16T09:00:50;31.30;;;28.20;;
50126;SDS011;36024;47.974;16.398;2022-10-16T09:19:56;31.30;;;28.27;;
50126;SDS011;36024;47.974;16.398;2022-10-16T09:22:41;31.60;;;28.50;;
50126;SDS011;36024;47.974;16.398;2022-10-16T09:25:12;32.63;;;29.50;;
50126;SDS011;36024;47.974;16.398;2022-10-16T09:27:45;33.00;;;29.70;;
50126;SDS011;36024;47.974;16.398;2022-10-16T09:30:14;30.23;;;27.30;;
50126;SDS011;36024;47.974;16.398;2022-10-16T09:32:43;30.87;;;27.97;;
50126;SDS011;36024;47.974;16.398;2022-10-16T09:35:13;31.60;;;28.50;;
50126;SDS011;36024;47.974;16.398;2022-10-16T09:37:42;29.50;;;26.70;;
50126;SDS011;36024;47.974;16.398;2022-10-16T09:40:52;31.00;;;28.00;;
50126;SDS011;36024;47.974;16.398;2022-10-16T09:43:11;31.43;;;28.33;;
50126;SDS011;36024;47.974;16.398;2022-10-16T09:45:53;31.40;;;28.37;;
50126;SDS011;36024;47.974;16.398;2022-10-16T09:48:29;30.90;;;27.90;;
50126;SDS011;36024;47.974;16.398;2022-10-16T09:51:01;30.97;;;28.17;;
50126;SDS011;36024;47.974;16.398;2022-10-16T09:53:40;30.17;;;27.27;;
50126;SDS011;36024;47.974;16.398;2022-10-16T09:56:12;30.97;;;27.77;;
50126;SDS011;36024;47.974;16.398;2022-10-16T09:58:51;32.50;;;29.27;;
50126;SDS011;36024;47.974;16.398;2022-10-16T10:01:36;32.20;;;28.93;;
50126;SDS011;36024;47.974;16.398;2022-10-16T10:04:04;32.47;;;29.13;;
50126;SDS011;36024;47.974;16.398;2022-10-16T10:06:33;34.10;;;30.80;;
50126;SDS011;36024;47.974;16.398;2022-10-16T10:14:57;34.07;;;30.67;;
50126;SDS011;36024;47.974;16.398;2022-10-16T10:19:43;35.33;;;31.97;;
50126;SDS011;36024;47.974;16.398;2022-10-16T10:25:14;34.90;;;31.60;;
50126;SDS011;36024;47.974;16.398;2022-10-16T10:36:02;39.23;;;35.27;;
50126;SDS011;36024;47.974;16.398;2022-10-16T10:46:51;39.33;;;35.47;;
50126;SDS011;36024;47.974;16.398;2022-10-16T10:50:10;40.63;;;36.83;;
50126;SDS011;36024;47.974;16.398;2022-10-16T10:52:47;41.10;;;36.80;;
50126;SDS011;36024;47.974;16.398;2022-10-16T11:05:59;40.70;;;36.77;;
50126;SDS011;36024;47.974;16.398;2022-10-16T11:08:37;42.63;;;38.43;;
50126;SDS011;36024;47.974;16.398;2022-10-16T11:11:40;41.03;;;37.03;;
50126;SDS011;36024;47.974;16.398;2022-10-16T11:14:46;44.43;;;40.17;;
50126;SDS011;36024;47.974;16.398;2022-10-16T11:17:11;43.67;;;39.27;;
50126;SDS011;36024;47.974;16.398;2022-10-16T11:22:12;44.03;;;39.83;;
50126;SDS011;36024;47.974;16.398;2022-10-16T11:27:28;43.50;;;39.13;;
50126;SDS011;36024;47.974;16.398;2022-10-16T11:30:03;43.20;;;38.97;;
50126;SDS011;36024;47.974;16.398;2022-10-16T11:32:34;42.63;;;38.53;;
50126;SDS011;36024;47.974;16.398;2022-10-16T11:35:24;43.10;;;39.00;;
50126;SDS011;36024;47.974;16.398;2022-10-16T11:38:03;41.77;;;37.53;;
50126;SDS011;36024;47.974;16.398;2022-10-16T11:40:37;40.00;;;36.20;;
50126;SDS011;36024;47.974;16.398;2022-10-16T11:43:12;39.03;;;35.03;;
50126;SDS011;36024;47.974;16.398;2022-10-16T11:45:45;40.27;;;36.40;;
50126;SDS011;36024;47.974;16.398;2022-10-16T11:48:30;39.13;;;35.40;;
50126;SDS011;36024;47.974;16.398;2022-10-16T11:51:02;39.77;;;35.97;;
50126;SDS011;36024;47.974;16.398;2022-10-16T11:53:57;38.90;;;35.30;;
50126;SDS011;36024;47.974;16.398;2022-10-16T11:56:23;38.23;;;34.47;;
50126;SDS011;36024;47.974;16.398;2022-10-16T11:58:56;39.87;;;36.10;;
50126;SDS011;36024;47.974;16.398;2022-10-16T12:04:05;37.87;;;34.20;;
50126;SDS011;36024;47.974;16.398;2022-10-16T12:07:13;39.08;;;35.10;;
50126;SDS011;36024;47.974;16.398;2022-10-16T12:09:36;39.50;;;35.80;;
50126;SDS011;36024;47.974;16.398;2022-10-16T12:12:05;39.63;;;36.03;;
50126;SDS011;36024;47.974;16.398;2022-10-16T12:15:01;39.63;;;35.70;;
50126;SDS011;36024;47.974;16.398;2022-10-16T12:17:47;38.15;;;34.55;;
50126;SDS011;36024;47.974;16.398;2022-10-16T12:22:41;38.55;;;35.03;;
50126;SDS011;36024;47.974;16.398;2022-10-16T12:25:28;35.10;;;31.73;;
50126;SDS011;36024;47.974;16.398;2022-10-16T12:28:04;33.77;;;30.60;;
50126;SDS011;36024;47.974;16.398;2022-10-16T12:30:33;35.45;;;31.80;;
50126;SDS011;36024;47.974;16.398;2022-10-16T12:33:02;35.63;;;32.23;;
50126;SDS011;36024;47.974;16.398;2022-10-16T12:35:34;34.73;;;31.20;;
50126;SDS011;36024;47.974;16.398;2022-10-16T12:40:47;36.43;;;33.00;;
50126;SDS011;36024;47.974;16.398;2022-10-16T12:48:38;37.37;;;33.83;;
50126;SDS011;36024;47.974;16.398;2022-10-16T13:02:33;37.50;;;34.07;;
50126;SDS011;36024;47.974;16.398;2022-10-16T13:07:52;36.93;;;33.33;;
50126;SDS011;36024;47.974;16.398;2022-10-16T13:15:47;37.27;;;33.67;;
50126;SDS011;36024;47.974;16.398;2022-10-16T13:26:20;39.00;;;35.17;;
50126;SDS011;36024;47.974;16.398;2022-10-16T13:28:58;37.63;;;34.03;;
50126;SDS011;36024;47.974;16.398;2022-10-16T13:31:27;38.07;;;34.37;;
50126;SDS011;36024;47.974;16.398;2022-10-16T13:33:55;36.60;;;32.97;;
50126;SDS011;36024;47.974;16.398;2022-10-16T13:36:29;38.53;;;34.73;;
50126;SDS011;36024;47.974;16.398;2022-10-16T13:39:22;37.77;;;34.10;;
50126;SDS011;36024;47.974;16.398;2022-10-16T13:44:38;37.33;;;33.53;;
50126;SDS011;36024;47.974;16.398;2022-10-16T13:47:12;38.50;;;34.67;;
50126;SDS011;36024;47.974;16.398;2022-10-16T13:49:42;36.03;;;32.43;;
50126;SDS011;36024;47.974;16.398;2022-10-16T13:52:16;35.17;;;31.53;;
50126;SDS011;36024;47.974;16.398;2022-10-16T13:54:47;31.40;;;28.30;;
50126;SDS011;36024;47.974;16.398;2022-10-16T13:57:14;30.37;;;27.27;;
50126;SDS011;36024;47.974;16.398;2022-10-16T13:59:52;29.23;;;26.53;;
50126;SDS011;36024;47.974;16.398;2022-10-16T14:02:35;29.30;;;26.50;;
50126;SDS011;36024;47.974;16.398;2022-10-16T14:05:04;28.83;;;26.23;;
50126;SDS011;36024;47.974;16.398;2022-10-16T14:07:36;29.60;;;26.90;;
50126;SDS011;36024;47.974;16.398;2022-10-16T14:10:04;29.27;;;26.63;;
50126;SDS011;36024;47.974;16.398;2022-10-16T14:12:32;27.50;;;25.00;;
50126;SDS011;36024;47.974;16.398;2022-10-16T14:15:00;28.50;;;25.67;;
50126;SDS011;36024;47.974;16.398;2022-10-16T14:17:28;28.93;;;26.23;;
50126;SDS011;36024;47.974;16.398;2022-10-16T14:19:57;27.67;;;25.00;;
50126;SDS011;36024;47.974;16.398;2022-10-16T14:22:40;26.63;;;24.23;;
50126;SDS011;36024;47.974;16.398;2022-10-16T14:28:14;26.98;;;24.38;;
50126;SDS011;36024;47.974;16.398;2022-10-16T14:30:52;27.10;;;24.67;;
50126;SDS011;36024;47.974;16.398;2022-10-16T14:33:24;28.05;;;25.40;;
50126;SDS011;36024;47.974;16.398;2022-10-16T14:36:13;28.05;;;25.35;;
50126;SDS011;36024;47.974;16.398;2022-10-16T14:38:42;26.60;;;24.20;;
50126;SDS011;36024;47.974;16.398;2022-10-16T14:41:09;25.63;;;23.23;;
50126;SDS011;36024;47.974;16.398;2022-10-16T14:43:37;25.98;;;23.60;;
50126;SDS011;36024;47.974;16.398;2022-10-16T14:46:27;26.43;;;24.03;;
50126;SDS011;36024;47.974;16.398;2022-10-16T14:51:37;26.58;;;24.15;;
50126;SDS011;36024;47.974;16.398;2022-10-16T14:54:04;26.15;;;23.80;;
50126;SDS011;36024;47.974;16.398;2022-10-16T14:57:05;26.55;;;23.95;;
50126;SDS011;36024;47.974;16.398;2022-10-16T15:01:59;27.20;;;24.52;;
50126;SDS011;36024;47.974;16.398;2022-10-16T15:04:25;26.63;;;24.10;;
50126;SDS011;36024;47.974;16.398;2022-10-16T15:06:52;26.63;;;24.23;;
50126;SDS011;36024;47.974;16.398;2022-10-16T15:09:19;25.73;;;23.42;;
50126;SDS011;36024;47.974;16.398;2022-10-16T15:11:45;26.33;;;23.73;;
50126;SDS011;36024;47.974;16.398;2022-10-16T15:14:13;25.50;;;23.17;;
50126;SDS011;36024;47.974;16.398;2022-10-16T15:16:40;26.83;;;24.33;;
50126;SDS011;36024;47.974;16.398;2022-10-16T15:19:07;26.63;;;24.13;;
50126;SDS011;36024;47.974;16.398;2022-10-16T15:21:33;26.60;;;24.20;;
50126;SDS011;36024;47.974;16.398;2022-10-16T15:24:00;26.30;;;23.92;;
50126;SDS011;36024;47.974;16.398;2022-10-16T15:26:27;26.03;;;23.73;;
50126;SDS011;36024;47.974;16.398;2022-10-16T15:28:55;26.40;;;23.90;;
50126;SDS011;36024;47.974;16.398;2022-10-16T15:31:22;26.60;;;24.00;;
50126;SDS011;36024;47.974;16.398;2022-10-16T15:33:53;26.93;;;24.33;;
50126;SDS011;36024;47.974;16.398;2022-10-16T15:36:25;26.83;;;24.33;;
50126;SDS011;36024;47.974;16.398;2022-10-16T15:38:55;27.33;;;24.60;;
50126;SDS011;36024;47.974;16.398;2022-10-16T15:41:22;26.60;;;24.00;;
50126;SDS011;36024;47.974;16.398;2022-10-16T15:43:49;26.80;;;24.33;;
50126;SDS011;36024;47.974;16.398;2022-10-16T15:46:20;25.63;;;23.13;;
50126;SDS011;36024;47.974;16.398;2022-10-16T15:48:48;27.93;;;25.23;;
50126;SDS011;36024;47.974;16.398;2022-10-16T15:51:16;26.63;;;24.07;;
50126;SDS011;36024;47.974;16.398;2022-10-16T15:53:43;27.33;;;24.53;;
50126;SDS011;36024;47.974;16.398;2022-10-16T15:56:12;27.27;;;24.77;;
50126;SDS011;36024;47.974;16.398;2022-10-16T15:58:41;27.33;;;24.83;;
50126;SDS011;36024;47.974;16.398;2022-10-16T16:01:08;28.23;;;25.53;;
50126;SDS011;36024;47.974;16.398;2022-10-16T16:03:37;26.50;;;24.10;;
50126;SDS011;36024;47.974;16.398;2022-10-16T16:06:07;27.80;;;25.10;;
50126;SDS011;36024;47.974;16.398;2022-10-16T16:08:35;27.37;;;24.63;;
50126;SDS011;36024;47.974;16.398;2022-10-16T16:11:09;27.27;;;24.67;;
50126;SDS011;36024;47.974;16.398;2022-10-16T16:13:37;28.57;;;25.93;;
50126;SDS011;36024;47.974;16.398;2022-10-16T16:16:05;28.10;;;25.37;;
50126;SDS011;36024;47.974;16.398;2022-10-16T16:18:33;27.37;;;24.67;;
50126;SDS011;36024;47.974;16.398;2022-10-16T16:21:00;28.57;;;25.80;;
50126;SDS011;36024;47.974;16.398;2022-10-16T16:23:27;28.53;;;25.93;;
50126;SDS011;36024;47.974;16.398;2022-10-16T16:28:29;29.63;;;26.60;;
50126;SDS011;36024;47.974;16.398;2022-10-16T16:30:56;29.20;;;26.27;;
50126;SDS011;36024;47.974;16.398;2022-10-16T16:33:23;28.67;;;25.97;;
50126;SDS011;36024;47.974;16.398;2022-10-16T16:35:50;27.63;;;24.93;;
50126;SDS011;36024;47.974;16.398;2022-10-16T16:38:16;28.93;;;26.13;;
50126;SDS011;36024;47.974;16.398;2022-10-16T16:40:43;29.53;;;26.70;;
50126;SDS011;36024;47.974;16.398;2022-10-16T16:43:10;30.13;;;27.37;;
50126;SDS011;36024;47.974;16.398;2022-10-16T16:45:36;29.47;;;26.47;;
50126;SDS011;36024;47.974;16.398;2022-10-16T16:48:03;30.53;;;27.73;;
50126;SDS011;36024;47.974;16.398;2022-10-16T16:50:34;29.37;;;26.47;;
50126;SDS011;36024;47.974;16.398;2022-10-16T16:53:02;31.13;;;27.97;;
50126;SDS011;36024;47.974;16.398;2022-10-16T16:55:29;30.60;;;27.80;;
50126;SDS011;36024;47.974;16.398;2022-10-16T16:57:55;31.03;;;28.03;;